Погода Благовичина 2 недели

Могилёвская область, Белоруссия

24 мая-05 июня
  • 24мая
    Сегодня
    +9°
    +21°
    Ясно и безоблачно
    ВремяПогодаТемператураВлажностьДавлениеВетер, м/сВероятность осадков
    00:00Ясно и безоблачно+15°C54 %756 мм5.4 м/с2 %
    03:00Ясно и безоблачно+12°C57 %757 мм5.1 м/с2 %
    06:00Ясно и безоблачно+11°C58 %758 мм4.8 м/с2 %
    09:00Ясно и безоблачно+15°C51 %758 мм5.2 м/с2 %
    12:00Ясно и безоблачно+20°C44 %758 мм5.2 м/с2 %
    15:00Ясно и безоблачно+21°C39 %758 мм5.3 м/с2 %
    18:00Практически безоблачно+21°C40 %758 мм4.8 м/с2 %
    21:00Ясно и безоблачно+17°C53 %757 мм3.7 м/с2 %
  • 25мая
    Суббота
    +9°
    +23°
    Ясно и безоблачно
    ВремяПогодаТемператураВлажностьДавлениеВетер, м/сВероятность осадков
    00:00Практически безоблачно+13°C58 %758 мм3.7 м/с2 %
    03:00Ясно и безоблачно+11°C64 %758 мм3.7 м/с2 %
    06:00Ясно и безоблачно+10°C63 %758 мм3.5 м/с2 %
    09:00Ясно и безоблачно+16°C51 %758 мм3.2 м/с2 %
    12:00Ясно и безоблачно+22°C40 %758 мм3.4 м/с2 %
    15:00Ясно и безоблачно+23°C35 %757 мм3.3 м/с2 %
    18:00Ясно и безоблачно+23°C36 %756 мм2.9 м/с2 %
    21:00Ясно и безоблачно+17°C67 %755 мм2.6 м/с2 %
  • 26мая
    Воскресенье
    +12°
    +24°
    Ясно и безоблачно
    ВремяПогодаТемператураВлажностьДавлениеВетер, м/сВероятность осадков
    00:00Практически безоблачно+13°C76 %756 мм2.7 м/с2 %
    03:00Облачно с прояснениями+11°C80 %755 мм2.2 м/с2 %
    06:00Облачно с прояснениями+11°C79 %755 мм1.7 м/с2 %
    09:00Облачно с прояснениями+18°C58 %756 мм1.1 м/с2 %
    12:00Облачно с прояснениями+22°C37 %756 мм1.3 м/с2 %
    15:00Ясно и безоблачно+23°C34 %755 мм1.9 м/с2 %
    18:00Ясно и безоблачно+23°C39 %754 мм2.1 м/с2 %
    21:00Практически безоблачно+20°C57 %755 мм1.3 м/с2 %
  • 27мая
    Понедельник
    +13°
    +26°
    Практически безоблачно
    ВремяПогодаТемператураВлажностьДавлениеВетер, м/сВероятность осадков
    00:00Ясно и безоблачно+15°C74 %754 мм2.3 м/с2 %
    03:00Ясно и безоблачно+13°C78 %755 мм2.4 м/с2 %
    06:00Ясно и безоблачно+15°C75 %755 мм3.0 м/с2 %
    09:00Ясно и безоблачно+20°C66 %755 мм2.5 м/с2 %
    12:00Ясно и безоблачно+24°C49 %756 мм3.8 м/с7 %
    15:00Практически безоблачно+25°C46 %755 мм3.2 м/с31 %
    18:00Практически безоблачно+25°C47 %755 мм3.0 м/с28 %
    21:00Практически безоблачно+20°C67 %755 мм3.1 м/с8 %
Мы используем cookies
Соглашаюсь